createdAt,value
2019-02-05T00:02:34.543Z,93.10
2019-02-05T00:07:35.866Z,93.40
2019-02-05T00:12:37.224Z,92.90
2019-02-05T00:17:38.529Z,91.80
2019-02-05T00:22:40.280Z,92.00
2019-02-05T00:27:41.590Z,92.10
2019-02-05T00:32:42.894Z,92.50
2019-02-05T00:37:44.165Z,92.80
2019-02-05T00:42:45.473Z,95.30
2019-02-05T00:47:46.776Z,92.60
2019-02-05T00:52:48.102Z,93.90
2019-02-05T00:57:49.402Z,91.80
2019-02-05T01:02:51.356Z,92.20
2019-02-05T01:07:52.654Z,94.60
2019-02-05T01:12:54.106Z,92.60
2019-02-05T01:17:55.414Z,94.70
2019-02-05T01:22:56.768Z,94.20
2019-02-05T01:27:58.063Z,93.20
2019-02-05T01:32:59.374Z,92.20
2019-02-05T01:38:00.701Z,92.90
2019-02-05T01:43:01.980Z,93.40
2019-02-05T01:48:03.315Z,92.90
2019-02-05T01:53:04.606Z,92.90
2019-02-05T01:58:05.909Z,91.90
2019-02-05T02:03:07.181Z,92.60
2019-02-05T02:08:08.492Z,93.10
2019-02-05T02:13:09.850Z,92.60
2019-02-05T02:18:11.162Z,92.20
2019-02-05T02:23:12.779Z,94.80
2019-02-05T02:28:14.090Z,92.00
2019-02-05T02:33:15.394Z,92.20
2019-02-05T02:38:16.691Z,91.30
2019-02-05T02:43:17.988Z,90.70
2019-02-05T02:48:19.297Z,92.50
2019-02-05T02:53:20.614Z,91.20
2019-02-05T02:58:21.888Z,92.20
2019-02-05T03:03:23.498Z,92.40
2019-02-05T03:08:24.806Z,93.50
2019-02-05T03:13:26.140Z,92.60
2019-02-05T03:18:27.696Z,92.50
2019-02-05T03:23:29.004Z,93.30
2019-02-05T03:28:30.267Z,92.10
2019-02-05T03:33:31.713Z,94.10
2019-02-05T03:38:32.967Z,92.30
2019-02-05T03:43:34.411Z,91.30
2019-02-05T03:48:36.096Z,90.30
2019-02-05T03:53:50.165Z,91.90
2019-02-05T03:59:04.179Z,91.00
2019-02-05T04:04:15.117Z,91.10
2019-02-05T04:09:26.166Z,92.70
2019-02-05T04:14:43.518Z,93.70
2019-02-05T04:19:51.913Z,93.40
2019-02-05T04:25:08.714Z,94.10
2019-02-05T04:30:31.810Z,93.30
2019-02-05T04:35:36.904Z,93.90
2019-02-05T04:40:53.647Z,93.60
2019-02-05T04:46:24.011Z,92.70
2019-02-05T04:51:41.056Z,93.40
2019-02-05T04:56:51.897Z,93.20
2019-02-05T05:02:09.056Z,92.30
2019-02-05T05:07:14.870Z,92.40
2019-02-05T05:12:16.136Z,92.50
2019-02-05T05:17:17.776Z,92.60
2019-02-05T05:22:19.075Z,93.00
2019-02-05T05:27:20.580Z,93.40
2019-02-05T05:32:21.888Z,93.30
2019-02-05T05:37:23.239Z,92.80
2019-02-05T05:42:24.503Z,92.50
2019-02-05T05:47:25.815Z,93.50
2019-02-05T05:52:27.132Z,93.50
2019-02-05T05:57:28.454Z,93.90
2019-02-05T06:02:29.805Z,93.40
2019-02-05T06:07:31.102Z,93.30
2019-02-05T06:12:32.532Z,93.20
2019-02-05T06:17:33.839Z,93.30
2019-02-05T06:22:35.158Z,93.90
2019-02-05T06:27:36.455Z,93.20
2019-02-05T06:32:37.713Z,93.70
2019-02-05T06:37:39.028Z,92.30
2019-02-05T06:42:40.524Z,92.90
2019-02-05T06:47:42.075Z,92.30
2019-02-05T06:52:43.378Z,93.60
2019-02-05T06:57:45.063Z,92.70
2019-02-05T07:02:46.388Z,91.80
2019-02-05T07:07:47.714Z,93.50
2019-02-05T07:12:49.049Z,92.90
2019-02-05T07:17:50.498Z,92.80
2019-02-05T07:22:51.815Z,93.00
2019-02-05T07:27:53.089Z,92.60
2019-02-05T07:32:54.433Z,91.90
2019-02-05T07:37:55.738Z,93.40
2019-02-05T07:42:57.047Z,93.60
2019-02-05T07:47:58.351Z,92.80
2019-02-05T07:52:59.644Z,92.50
2019-02-05T07:58:01.178Z,94.50
2019-02-05T08:03:02.607Z,93.60
2019-02-05T08:08:04.784Z,92.70
2019-02-05T08:13:06.355Z,91.10
2019-02-05T08:18:08.100Z,92.90
2019-02-05T08:23:09.370Z,92.60
2019-02-05T08:28:10.717Z,91.10
2019-02-05T08:33:12.063Z,90.00
2019-02-05T08:38:13.354Z,90.00
2019-02-05T08:43:14.862Z,86.70
2019-02-05T08:48:16.181Z,87.60
2019-02-05T08:53:17.494Z,86.40
2019-02-05T08:58:30.300Z,85.30
2019-02-05T09:03:22.207Z,83.70
2019-02-05T09:08:23.511Z,87.90
2019-02-05T09:13:25.240Z,89.00
2019-02-05T09:18:26.549Z,87.60
2019-02-05T09:23:27.887Z,82.50
2019-02-05T09:28:29.403Z,82.00
2019-02-05T09:33:30.710Z,82.10
2019-02-05T09:38:31.996Z,79.90
2019-02-05T09:43:33.488Z,74.80
2019-02-05T09:48:34.791Z,86.40
2019-02-05T09:53:36.095Z,84.60
2019-02-05T09:58:37.618Z,83.00
2019-02-05T10:03:38.951Z,82.90
2019-02-05T10:08:40.260Z,84.30
2019-02-05T10:13:41.571Z,81.20
2019-02-05T10:18:45.835Z,74.80
2019-02-05T10:23:46.059Z,76.70
2019-02-05T10:28:47.359Z,76.40
2019-02-05T10:33:55.290Z,72.90
2019-02-05T10:38:51.811Z,73.40
2019-02-05T10:43:53.151Z,71.60
2019-02-05T10:48:54.415Z,75.00
2019-02-05T10:53:55.735Z,78.10
2019-02-05T10:58:57.041Z,65.20
2019-02-05T11:03:58.359Z,72.50
2019-02-05T11:08:59.674Z,66.60
2019-02-05T11:14:00.972Z,77.20
2019-02-05T11:19:02.303Z,68.20
2019-02-05T11:24:03.694Z,72.70
2019-02-05T11:29:05.080Z,69.60
2019-02-05T11:34:06.400Z,67.10
2019-02-05T11:39:13.084Z,57.20
2019-02-05T11:44:14.413Z,65.30
2019-02-05T11:49:15.740Z,62.20
2019-02-05T11:54:17.364Z,57.10
2019-02-05T11:59:18.684Z,70.20
2019-02-05T12:04:20.006Z,64.40
2019-02-05T12:21:14.353Z,58.80
2019-02-05T12:26:15.640Z,63.00
2019-02-05T12:31:16.968Z,61.30
2019-02-05T12:36:18.309Z,53.30
2019-02-05T12:41:19.587Z,49.00
2019-02-05T12:46:21.184Z,58.90
2019-02-05T12:51:22.439Z,58.70
2019-02-05T12:56:23.803Z,59.90
2019-02-05T13:01:25.156Z,58.60
2019-02-05T13:06:26.474Z,63.50
2019-02-05T13:11:27.873Z,57.50
2019-02-05T13:16:29.150Z,64.70
2019-02-05T13:21:30.502Z,66.20
2019-02-05T13:26:31.819Z,68.00
2019-02-05T13:31:33.197Z,67.90
2019-02-05T13:36:34.556Z,68.20
2019-02-05T13:41:35.918Z,71.60
2019-02-05T13:46:37.260Z,68.80
2019-02-05T13:51:38.577Z,72.00
2019-02-05T13:56:40.020Z,72.20
2019-02-05T14:01:44.433Z,73.50
2019-02-05T14:06:44.501Z,73.90
2019-02-05T14:11:45.833Z,73.60
2019-02-05T14:16:47.081Z,72.60
2019-02-05T14:21:48.594Z,74.30
2019-02-05T14:26:50.048Z,72.50
2019-02-05T14:31:51.510Z,67.50
2019-02-05T14:36:52.843Z,76.40
2019-02-05T14:41:54.141Z,78.00
2019-02-05T14:46:55.488Z,78.60
2019-02-05T14:51:57.834Z,78.90
2019-02-05T14:56:59.329Z,79.60
2019-02-05T15:02:00.934Z,79.90
2019-02-05T15:07:02.247Z,81.20
2019-02-05T15:12:03.578Z,80.10
2019-02-05T15:17:04.907Z,81.20
2019-02-05T15:22:06.257Z,81.90
2019-02-05T15:27:07.695Z,82.70
2019-02-05T15:32:10.916Z,84.80
2019-02-05T15:37:12.293Z,81.80
2019-02-05T15:42:13.700Z,84.30
2019-02-05T15:47:15.014Z,84.20
2019-02-05T15:52:16.323Z,86.80
2019-02-05T15:57:17.632Z,88.70
2019-02-05T16:02:18.930Z,86.90
2019-02-05T16:07:20.241Z,89.80
2019-02-05T16:12:21.591Z,90.40
2019-02-05T16:17:22.876Z,88.80
2019-02-05T16:22:24.636Z,85.80
2019-02-05T16:27:25.964Z,86.10
2019-02-05T16:32:27.323Z,85.30
2019-02-05T16:37:28.635Z,85.40
2019-02-05T16:42:29.979Z,86.10
2019-02-05T16:47:31.254Z,87.80
2019-02-05T16:52:32.566Z,87.90
2019-02-05T16:57:33.887Z,86.70
2019-02-05T17:02:35.208Z,90.00
2019-02-05T17:07:36.530Z,89.20
2019-02-05T17:12:38.019Z,88.60
2019-02-05T17:17:39.515Z,89.00
2019-02-05T17:22:40.866Z,89.20
2019-02-05T17:27:42.176Z,88.80
2019-02-05T17:32:43.493Z,87.80
2019-02-05T17:37:44.818Z,89.10
2019-02-05T17:42:46.373Z,88.20
2019-02-05T17:47:47.691Z,88.10
2019-02-05T17:52:48.992Z,87.90
2019-02-05T17:57:50.623Z,88.20
2019-02-05T18:02:51.974Z,88.10
2019-02-05T18:07:53.279Z,88.40
2019-02-05T18:12:54.614Z,88.90
2019-02-05T18:17:55.951Z,88.10
2019-02-05T18:22:57.278Z,89.10
2019-02-05T18:27:58.641Z,91.30
2019-02-05T18:33:04.918Z,90.90
2019-02-05T18:38:12.880Z,90.50
2019-02-05T18:43:14.220Z,90.20
2019-02-05T18:48:15.653Z,90.90
2019-02-05T18:53:16.980Z,91.10
2019-02-05T18:58:18.299Z,90.50
2019-02-05T19:03:19.908Z,90.30
2019-02-05T19:08:21.264Z,90.10
2019-02-05T19:13:22.660Z,90.00
2019-02-05T19:18:23.938Z,90.80
2019-02-05T19:23:26.165Z,90.60
2019-02-05T19:28:29.386Z,90.10
2019-02-05T19:33:30.696Z,89.70
2019-02-05T19:38:32.025Z,90.30
2019-02-05T19:43:33.804Z,90.80
2019-02-05T19:48:43.012Z,91.80
2019-02-05T19:53:44.334Z,91.80
2019-02-05T19:58:45.647Z,91.90
2019-02-05T20:03:47.114Z,92.00
2019-02-05T20:08:48.427Z,92.10
2019-02-05T20:13:50.008Z,91.80
2019-02-05T20:18:51.339Z,92.10
2019-02-05T20:23:52.623Z,91.60
2019-02-05T20:28:54.058Z,91.80
2019-02-05T20:33:55.296Z,91.70
2019-02-05T20:38:56.703Z,91.80
2019-02-05T20:43:57.998Z,91.70
2019-02-05T20:48:59.277Z,91.30
2019-02-05T20:54:00.595Z,91.30
2019-02-05T20:59:01.915Z,91.10
2019-02-05T21:04:03.332Z,91.00
2019-02-05T21:09:08.472Z,91.20
2019-02-05T21:14:09.721Z,91.00
2019-02-05T21:19:11.070Z,90.90
2019-02-05T21:24:12.408Z,91.10
2019-02-05T21:29:13.764Z,90.70
2019-02-05T21:34:16.122Z,90.60
2019-02-05T21:39:20.314Z,90.90
2019-02-05T21:44:21.620Z,90.90
2019-02-05T21:49:23.021Z,90.80
2019-02-05T21:54:24.583Z,90.70
2019-02-05T21:59:25.903Z,90.90
2019-02-05T22:04:28.256Z,91.10
2019-02-05T22:09:29.684Z,90.90
2019-02-05T22:14:31.115Z,91.00
2019-02-05T22:19:32.444Z,91.10
2019-02-05T22:24:40.005Z,90.90
2019-02-05T22:29:41.620Z,90.60
2019-02-05T22:34:42.943Z,90.20
2019-02-05T22:39:44.268Z,90.30
2019-02-05T22:44:45.562Z,90.40
2019-02-05T22:49:46.865Z,90.20
2019-02-05T22:54:48.287Z,90.40
2019-02-05T22:59:49.602Z,90.00
2019-02-05T23:04:54.742Z,89.10
2019-02-05T23:09:59.847Z,88.80
2019-02-05T23:15:08.089Z,90.00
2019-02-05T23:20:12.413Z,88.90
2019-02-05T23:25:13.791Z,88.70
2019-02-05T23:30:17.722Z,89.50
2019-02-05T23:35:19.058Z,87.40
2019-02-05T23:40:20.765Z,87.30
2019-02-05T23:45:22.055Z,87.30
2019-02-05T23:50:23.361Z,87.10
2019-02-05T23:55:24.732Z,86.20
